Time;durP1;ratioP1;P1;durP2;ratioP2;P2;SDS_P1;SDS_P2;PMS_P1;PMS_P2;Temp;Humidity;BMP_temperature;BMP_pressure;BME280_temperature;BME280_humidity;BME280_pressure;Samples;Min_cycle;Max_cycle;Signal;HPM_P1;HPM_P2
2023/01/06 00:01:25;;;;;;;12.77;3.78;;;;;;;6.57;91.06;100019.03;5048264;28;20399;-49
2023/01/06 00:03:53;;;;;;;8.50;2.08;;;;;;;6.55;91.23;100008.38;5048455;28;20044;-46
2023/01/06 00:06:26;;;;;;;12.82;2.60;;;;;;;6.55;91.15;100013.06;5048880;28;20075;-52
2023/01/06 00:08:58;;;;;;;14.32;1.80;;;;;;;6.53;91.26;100016.19;5047661;28;20044;-50
2023/01/06 00:11:25;;;;;;;15.07;1.80;;;;;;;6.53;91.36;100018.94;5048473;28;20048;-48
2023/01/06 00:13:53;;;;;;;11.52;2.60;;;;;;;6.54;91.40;100025.25;5048693;28;20044;-50
2023/01/06 00:16:21;;;;;;;21.40;2.28;;;;;;;6.54;91.53;100023.28;5051148;28;20078;-51
2023/01/06 00:18:48;;;;;;;12.60;2.40;;;;;;;6.57;91.48;100017.09;5048405;28;20041;-47
2023/01/06 00:21:15;;;;;;;10.73;2.13;;;;;;;6.60;91.52;100013.69;5047988;28;20056;-50
2023/01/06 00:23:41;;;;;;;10.10;2.60;;;;;;;6.58;91.39;100009.66;5047638;28;20057;-57
2023/01/06 00:26:09;;;;;;;15.75;2.72;;;;;;;6.57;91.20;100013.53;5038305;28;20042;-49
2023/01/06 00:28:36;;;;;;;19.88;3.90;;;;;;;6.55;91.39;100011.13;5047943;28;20053;-47
2023/01/06 00:31:11;;;;;;;17.48;4.53;;;;;;;6.54;91.47;100023.28;5048207;28;20380;-47
2023/01/06 00:33:38;;;;;;;11.32;2.90;;;;;;;6.55;91.32;100033.13;5054310;28;20044;-47
2023/01/06 00:36:07;;;;;;;16.05;3.15;;;;;;;6.55;91.52;100016.63;5051400;28;20049;-48
2023/01/06 00:38:35;;;;;;;10.10;1.90;;;;;;;6.56;91.43;100026.50;5047958;28;20049;-46
2023/01/06 00:42:02;;;;;;;12.55;2.25;;;;;;;6.56;91.17;100014.69;5047627;28;20091;-47
2023/01/06 00:43:56;;;;;;;15.52;2.05;;;;;;;6.51;91.30;100015.69;5046216;28;20056;-46
2023/01/06 00:46:27;;;;;;;8.48;2.08;;;;;;;6.51;91.31;100012.16;5048049;28;20068;-48
2023/01/06 00:48:59;;;;;;;9.00;2.17;;;;;;;6.49;91.35;100006.16;5046259;28;20411;-45
2023/01/06 00:51:31;;;;;;;11.35;2.15;;;;;;;6.48;91.38;100015.56;5047618;28;20049;-48
2023/01/06 00:53:59;;;;;;;12.48;2.33;;;;;;;6.46;91.38;100013.13;5047662;28;20041;-55
2023/01/06 00:56:25;;;;;;;10.75;2.30;;;;;;;6.44;91.49;99996.19;5047275;28;20457;-47
2023/01/06 00:58:52;;;;;;;14.23;2.30;;;;;;;6.42;91.58;100001.22;5046607;28;20045;-48
2023/01/06 01:01:19;;;;;;;13.85;2.55;;;;;;;6.38;91.41;100000.25;5038001;28;20110;-47
2023/01/06 01:03:47;;;;;;;10.07;2.17;;;;;;;6.37;91.35;100004.16;5047709;28;20532;-48
2023/01/06 01:06:15;;;;;;;14.52;3.65;;;;;;;6.37;91.44;100011.59;5047329;28;20155;-47
2023/01/06 01:08:42;;;;;;;11.98;2.60;;;;;;;6.35;91.40;99995.47;5047090;28;20067;-48
2023/01/06 01:12:08;;;;;;;12.10;2.85;;;;;;;6.34;91.21;100010.34;5047127;28;20044;-49
2023/01/06 01:13:57;;;;;;;16.77;3.17;;;;;;;6.34;91.32;100006.78;5046886;28;20143;-47
2023/01/06 01:16:24;;;;;;;11.07;2.10;;;;;;;6.33;91.27;100005.97;5049276;28;20520;-47
2023/01/06 01:18:50;;;;;;;19.83;5.05;;;;;;;6.33;91.51;99985.94;5046410;28;20127;-45
2023/01/06 01:21:17;;;;;;;12.25;2.65;;;;;;;6.33;91.23;99997.72;5046822;28;20406;-47
2023/01/06 01:23:44;;;;;;;10.38;2.65;;;;;;;6.32;90.92;100004.38;5046943;28;20502;-47
2023/01/06 01:26:10;;;;;;;12.88;2.17;;;;;;;6.33;90.93;100003.22;5046880;28;20053;-51
2023/01/06 01:28:37;;;;;;;14.57;2.05;;;;;;;6.32;90.98;100004.38;5047167;28;20040;-48
2023/01/06 01:31:04;;;;;;;14.80;2.90;;;;;;;6.31;90.95;100008.25;5046821;28;20120;-48
2023/01/06 01:33:31;;;;;;;12.00;3.22;;;;;;;6.29;90.96;100018.78;5047221;28;20131;-47
2023/01/06 01:36:04;;;;;;;13.30;2.55;;;;;;;6.30;91.07;100014.88;5046590;28;20044;-46
2023/01/06 01:38:31;;;;;;;16.35;3.08;;;;;;;6.31;90.97;100026.69;5046824;28;20053;-46
2023/01/06 01:40:58;;;;;;;18.58;3.40;;;;;;;6.29;90.96;100024.28;5046690;28;20243;-46
2023/01/06 01:43:24;;;;;;;19.83;2.72;;;;;;;6.30;90.82;100020.38;5046483;28;20461;-47
2023/01/06 01:45:54;;;;;;;13.45;3.90;;;;;;;6.29;90.88;100012.47;5045067;28;20170;-47
2023/01/06 01:48:31;;;;;;;9.35;2.35;;;;;;;6.27;90.84;100025.75;5045620;28;20061;-46
2023/01/06 01:51:02;;;;;;;11.73;2.08;;;;;;;6.25;90.85;100023.31;5045500;28;20045;-47
2023/01/06 01:53:37;;;;;;;17.83;3.15;;;;;;;6.24;90.83;100026.41;5047125;28;20415;-53
2023/01/06 01:56:07;;;;;;;12.98;3.45;;;;;;;6.23;90.77;100025.59;5034475;28;20045;-47
2023/01/06 01:59:09;;;;;;;19.20;3.15;;;;;;;6.21;90.56;100027.91;5046223;28;20064;-52
2023/01/06 02:01:36;;;;;;;13.90;4.17;;;;;;;6.20;90.70;100020.78;5038067;28;20057;-49
2023/01/06 02:04:03;;;;;;;15.82;2.25;;;;;;;6.20;90.61;100018.03;5046265;28;20156;-48
2023/01/06 02:06:30;;;;;;;17.55;3.10;;;;;;;6.20;90.70;100028.22;5046485;28;20048;-49
2023/01/06 02:09:10;;;;;;;13.48;3.08;;;;;;;6.18;90.62;100034.06;5035703;28;20037;-51
2023/01/06 02:11:37;;;;;;;9.40;2.00;;;;;;;6.17;90.54;100031.66;5050328;28;20325;-47
2023/01/06 02:14:14;;;;;;;10.10;1.88;;;;;;;6.17;90.39;100037.94;5050234;28;20070;-48
2023/01/06 02:17:19;;;;;;;13.95;2.15;;;;;;;6.16;90.38;100036.34;5053235;28;20044;-49
2023/01/06 02:19:57;;;;;;;15.93;2.42;;;;;;;6.13;90.48;100048.81;5046080;28;20057;-47
2023/01/06 02:22:42;;;;;;;14.70;2.92;;;;;;;6.13;90.40;100037.00;5050292;28;20063;-50
2023/01/06 02:25:12;;;;;;;12.50;3.97;;;;;;;6.11;90.35;100039.28;5049639;28;20368;-46
2023/01/06 02:27:42;;;;;;;12.60;2.55;;;;;;;6.09;90.29;100042.34;5048880;28;20071;-54
2023/01/06 02:30:14;;;;;;;10.57;2.35;;;;;;;6.06;90.26;100055.97;5049173;28;20080;-48
2023/01/06 02:32:44;;;;;;;16.17;2.35;;;;;;;6.05;90.32;100062.59;5050060;28;20059;-47
2023/01/06 02:35:20;;;;;;;12.32;2.30;;;;;;;6.04;90.19;100055.47;5060248;28;20052;-47
2023/01/06 02:38:15;;;;;;;14.10;2.28;;;;;;;6.01;90.18;100056.16;5050298;28;20059;-47
2023/01/06 02:41:00;;;;;;;11.18;1.92;;;;;;;6.01;90.20;100069.91;5030982;28;20510;-49
2023/01/06 02:43:37;;;;;;;6.65;2.05;;;;;;;5.99;90.19;100063.91;5041026;28;20495;-48
2023/01/06 02:46:42;;;;;;;12.30;2.17;;;;;;;5.97;90.12;100071.69;5050134;28;20553;-47
2023/01/06 02:49:11;;;;;;;26.63;3.53;;;;;;;5.97;90.22;100077.97;5037235;28;20049;-48
2023/01/06 02:52:09;;;;;;;19.83;3.90;;;;;;;5.95;90.09;100079.44;5050027;28;20051;-50
2023/01/06 02:55:07;;;;;;;14.60;3.35;;;;;;;5.95;90.45;100082.19;5050010;28;20049;-48
2023/01/06 02:57:58;;;;;;;15.93;2.83;;;;;;;5.92;90.44;100075.41;5049697;28;20139;-46
2023/01/06 03:03:07;;;;;;;13.38;2.30;;;;;;;5.93;90.34;100103.72;5027554;28;20060;-53
2023/01/06 03:05:35;;;;;;;12.60;2.25;;;;;;;5.94;90.49;100105.31;5012351;28;20061;-47
2023/01/06 03:08:07;;;;;;;16.05;4.43;;;;;;;5.94;90.41;100106.09;5028782;28;20439;-52
2023/01/06 03:10:36;;;;;;;19.58;3.75;;;;;;;5.96;90.24;100117.56;5017069;28;20401;-47
2023/01/06 03:13:14;;;;;;;19.08;4.20;;;;;;;5.97;90.24;100126.63;5029362;28;20049;-48
2023/01/06 03:15:41;;;;;;;15.77;3.38;;;;;;;5.97;90.02;100116.44;5028647;28;20137;-53
2023/01/06 03:18:08;;;;;;;11.73;2.72;;;;;;;5.98;90.29;100120.00;5032954;28;20045;-47
2023/01/06 03:20:35;;;;;;;13.85;2.55;;;;;;;5.96;90.31;100122.25;5029019;28;20045;-47
2023/01/06 03:23:02;;;;;;;18.23;4.13;;;;;;;5.94;90.15;100114.34;5029412;28;20136;-47
2023/01/06 03:25:29;;;;;;;11.52;2.08;;;;;;;5.94;90.25;100111.59;5029702;28;20049;-47
2023/01/06 03:27:56;;;;;;;21.92;2.72;;;;;;;5.92;90.35;100118.56;5027819;28;20050;-48
2023/01/06 03:30:27;;;;;;;15.07;3.13;;;;;;;5.90;90.13;100116.16;5029440;28;20483;-49
2023/01/06 03:33:11;;;;;;;10.88;2.45;;;;;;;5.89;90.38;100108.22;5028755;28;20068;-47
2023/01/06 03:35:54;;;;;;;12.43;2.50;;;;;;;5.88;90.10;100112.91;5036601;28;20168;-47
2023/01/06 03:38:41;;;;;;;12.52;1.92;;;;;;;5.87;90.18;100105.00;5028969;28;20080;-53
2023/01/06 03:44:36;;;;;;;11.20;2.35;;;;;;;5.81;90.21;100098.06;5028599;28;20060;-48
2023/01/06 03:47:14;;;;;;;11.20;2.38;;;;;;;5.78;90.19;100101.44;5029537;28;20038;-47
2023/01/06 03:49:54;;;;;;;14.32;2.00;;;;;;;5.77;89.96;100105.34;5028207;28;20061;-47
2023/01/06 03:52:28;;;;;;;19.88;2.70;;;;;;;5.74;90.16;100100.50;5028554;28;20041;-47
2023/01/06 03:55:07;;;;;;;17.08;2.47;;;;;;;5.75;90.39;100113.09;5028709;28;20053;-47
2023/01/06 03:57:38;;;;;;;8.93;2.63;;;;;;;5.73;90.38;100107.13;5027452;28;20446;-47
2023/01/06 04:00:18;;;;;;;9.90;2.20;;;;;;;5.69;90.43;100098.75;5027846;28;20053;-52
2023/01/06 04:02:45;;;;;;;10.60;2.30;;;;;;;5.68;90.25;100096.31;5015799;28;20056;-48
2023/01/06 04:05:14;;;;;;;8.15;1.50;;;;;;;5.67;90.22;100105.69;5028526;28;20053;-48
2023/01/06 04:07:42;;;;;;;9.70;2.00;;;;;;;5.64;90.39;100109.91;5027563;28;20582;-47
2023/01/06 04:10:10;;;;;;;5.28;2.13;;;;;;;5.63;90.36;100104.75;5028330;28;20054;-47
2023/01/06 04:12:37;;;;;;;14.20;2.15;;;;;;;5.63;90.36;100111.03;5028451;28;20140;-47
2023/01/06 04:15:09;;;;;;;15.05;2.08;;;;;;;5.63;90.33;100111.03;5028220;28;20091;-47
2023/01/06 04:17:37;;;;;;;8.50;1.83;;;;;;;5.62;90.24;100114.91;5031715;28;20055;-48
2023/01/06 04:20:06;;;;;;;7.80;1.80;;;;;;;5.64;90.15;100117.34;5028511;28;20041;-53
2023/01/06 04:22:33;;;;;;;13.30;2.42;;;;;;;5.64;90.16;100120.09;5027972;28;20071;-48
2023/01/06 04:24:59;;;;;;;10.25;1.70;;;;;;;5.63;90.23;100113.78;5026974;28;20479;-47
2023/01/06 04:27:26;;;;;;;13.93;3.13;;;;;;;5.62;90.05;100130.56;5009345;28;20049;-47
2023/01/06 04:29:53;;;;;;;11.18;2.15;;;;;;;5.60;90.32;100132.84;5027883;28;20048;-47
2023/01/06 04:32:19;;;;;;;8.43;2.63;;;;;;;5.61;90.39;100120.75;5027277;28;20286;-48
2023/01/06 04:34:46;;;;;;;8.95;1.92;;;;;;;5.60;90.24;100119.13;5019570;28;20046;-49
2023/01/06 04:37:13;;;;;;;6.50;2.05;;;;;;;5.60;90.37;100121.88;5027611;28;20060;-52
2023/01/06 04:39:39;;;;;;;7.88;1.90;;;;;;;5.61;90.42;100118.00;5014674;28;20072;-50
2023/01/06 04:42:06;;;;;;;11.80;2.08;;;;;;;5.60;90.24;100127.34;5026770;28;20088;-48
2023/01/06 04:44:33;;;;;;;8.95;2.72;;;;;;;5.58;90.28;100121.41;5027476;28;20132;-50
2023/01/06 04:47:00;;;;;;;7.75;1.75;;;;;;;5.57;90.17;100122.53;5027656;28;20188;-48
2023/01/06 04:49:26;;;;;;;8.57;1.85;;;;;;;5.57;90.35;100128.00;5027581;28;20522;-49
2023/01/06 04:51:53;;;;;;;18.48;2.47;;;;;;;5.53;90.21;100128.66;5027212;28;20340;-50
2023/01/06 04:54:20;;;;;;;5.82;1.55;;;;;;;5.55;90.45;100120.13;5009753;28;20046;-47
2023/01/06 04:56:47;;;;;;;19.85;2.47;;;;;;;5.56;90.30;100132.69;5027031;28;20041;-47
2023/01/06 04:59:13;;;;;;;10.00;1.90;;;;;;;5.56;90.52;100138.19;5025205;28;20045;-48
2023/01/06 05:01:40;;;;;;;7.55;1.63;;;;;;;5.54;90.48;100119.31;5027121;28;20140;-47
2023/01/06 05:04:07;;;;;;;9.82;3.38;;;;;;;5.55;90.44;100106.38;5027284;28;20037;-53
2023/01/06 05:06:34;;;;;;;8.93;1.58;;;;;;;5.53;90.56;100114.94;5027126;28;20410;-47
2023/01/06 05:09:01;;;;;;;7.70;1.67;;;;;;;5.53;90.70;100117.69;5027539;28;20049;-47
2023/01/06 05:11:27;;;;;;;10.77;1.85;;;;;;;5.53;90.67;100112.19;5026961;28;20037;-47
2023/01/06 05:13:54;;;;;;;15.75;2.60;;;;;;;5.53;90.68;100111.41;5026407;28;20056;-48
2023/01/06 05:16:31;;;;;;;8.98;1.55;;;;;;;5.55;90.57;100120.13;5027210;28;20383;-49
2023/01/06 05:18:59;;;;;;;10.32;1.65;;;;;;;5.57;90.58;100117.84;5027295;28;20546;-47
2023/01/06 05:21:27;;;;;;;12.45;1.85;;;;;;;5.58;90.81;100110.41;5026734;28;20051;-48
2023/01/06 05:23:57;;;;;;;11.18;2.33;;;;;;;5.59;90.73;100114.78;5027312;28;20084;-49
2023/01/06 05:26:26;;;;;;;8.00;2.00;;;;;;;5.58;90.75;100113.97;5026859;28;20049;-47
2023/01/06 05:28:53;;;;;;;10.15;1.63;;;;;;;5.59;90.85;100107.31;5026068;28;20052;-48
2023/01/06 05:31:20;;;;;;;11.18;1.65;;;;;;;5.60;90.91;100116.38;5025895;28;20041;-47
2023/01/06 05:33:47;;;;;;;9.95;2.03;;;;;;;5.60;90.79;100116.38;5027012;28;20091;-47
2023/01/06 05:36:15;;;;;;;14.35;2.50;;;;;;;5.59;91.01;100117.53;5026815;28;20037;-47
2023/01/06 05:38:42;;;;;;;7.97;1.52;;;;;;;5.60;91.02;100121.88;5026790;28;20050;-47
2023/01/06 05:41:09;;;;;;;10.27;2.13;;;;;;;5.62;91.26;100125.09;5020537;28;20453;-47
2023/01/06 05:43:36;;;;;;;13.48;2.90;;;;;;;5.64;91.48;100111.84;5026939;28;20041;-49
2023/01/06 05:46:05;;;;;;;13.23;2.40;;;;;;;5.69;91.32;100111.69;5026745;28;20048;-49
2023/01/06 05:48:32;;;;;;;5.57;1.20;;;;;;;5.74;91.22;100122.47;5026338;28;20041;-47
2023/01/06 05:51:05;;;;;;;9.45;1.60;;;;;;;5.75;91.21;100113.09;5026620;28;20115;-50
2023/01/06 05:53:33;;;;;;;18.13;2.20;;;;;;;5.75;91.22;100115.84;5025317;28;20061;-48
2023/01/06 05:56:05;;;;;;;9.73;1.20;;;;;;;5.75;91.35;100126.81;5027262;28;20144;-49
2023/01/06 05:58:32;;;;;;;9.00;1.20;;;;;;;5.73;91.39;100116.19;5026554;28;20155;-51
2023/01/06 06:01:00;;;;;;;8.10;1.40;;;;;;;5.73;91.42;100112.63;5027430;28;20691;-48
2023/01/06 06:03:27;;;;;;;4.25;1.30;;;;;;;5.72;91.40;100119.25;5027577;28;20050;-56
2023/01/06 06:05:54;;;;;;;12.85;1.58;;;;;;;5.70;91.65;100121.50;5026488;28;20042;-47
2023/01/06 06:08:20;;;;;;;5.53;1.30;;;;;;;5.70;91.86;100127.00;5026747;28;20049;-47
2023/01/06 06:10:47;;;;;;;8.15;2.60;;;;;;;5.68;91.80;100129.28;5027089;28;20068;-47
2023/01/06 06:13:14;;;;;;;12.23;1.10;;;;;;;5.68;91.86;100134.78;5026196;28;20048;-48
2023/01/06 06:15:40;;;;;;;9.32;1.77;;;;;;;5.65;92.06;100121.69;5026967;28;20434;-50
2023/01/06 06:18:07;;;;;;;12.13;1.60;;;;;;;5.63;91.97;100127.53;5026281;28;20042;-47
2023/01/06 06:20:34;;;;;;;3.30;1.50;;;;;;;5.61;92.23;100126.25;5026554;28;20053;-48
2023/01/06 06:23:00;;;;;;;10.30;1.35;;;;;;;5.60;92.09;100124.63;5025385;28;20530;-51
2023/01/06 06:25:28;;;;;;;8.82;1.83;;;;;;;5.57;92.17;100128.00;5026954;28;20071;-48
2023/01/06 06:27:58;;;;;;;10.15;1.48;;;;;;;5.56;92.42;100126.41;5025608;28;20056;-48
2023/01/06 06:30:25;;;;;;;4.68;1.38;;;;;;;5.52;92.42;100127.06;5026450;28;20053;-47
2023/01/06 06:32:51;;;;;;;6.25;0.93;;;;;;;5.51;92.58;100125.44;5026147;28;20483;-47
2023/01/06 06:35:18;;;;;;;8.38;1.20;;;;;;;5.50;92.78;100123.03;5026740;28;20045;-51
2023/01/06 06:37:45;;;;;;;8.48;0.95;;;;;;;5.50;92.98;100115.63;5026479;28;20045;-47
2023/01/06 06:40:11;;;;;;;3.78;1.25;;;;;;;5.49;92.96;100122.22;5025337;28;20045;-47
2023/01/06 06:42:38;;;;;;;6.82;1.30;;;;;;;5.50;93.21;100126.59;5026120;28;20045;-47
2023/01/06 06:45:05;;;;;;;10.90;1.83;;;;;;;5.52;93.06;100126.25;5026564;28;20050;-47
2023/01/06 06:47:32;;;;;;;7.80;2.05;;;;;;;5.54;93.21;100129.47;5026444;28;20042;-51
2023/01/06 06:49:59;;;;;;;8.05;1.67;;;;;;;5.54;93.29;100124.78;5026499;28;20048;-54
2023/01/06 06:52:25;;;;;;;6.72;1.60;;;;;;;5.57;93.29;100134.31;5026105;28;20045;-47
2023/01/06 06:54:52;;;;;;;8.43;1.38;;;;;;;5.58;93.16;100135.13;5027763;28;20073;-48
2023/01/06 06:57:19;;;;;;;8.15;1.35;;;;;;;5.60;93.36;100130.91;5027625;28;20061;-47
2023/01/06 06:59:45;;;;;;;4.68;0.73;;;;;;;5.60;93.20;100128.19;5029684;28;20052;-47
2023/01/06 07:02:12;;;;;;;8.10;1.48;;;;;;;5.61;93.44;100126.25;5029217;28;20046;-47
2023/01/06 07:04:39;;;;;;;3.90;1.15;;;;;;;5.62;93.57;100122.34;5029755;28;20052;-49
2023/01/06 07:07:05;;;;;;;7.20;1.65;;;;;;;5.62;93.48;100125.09;5029466;28;20469;-47
2023/01/06 07:09:32;;;;;;;7.15;1.77;;;;;;;5.63;93.61;100115.72;5029398;28;20390;-48
2023/01/06 07:11:59;;;;;;;8.50;2.53;;;;;;;5.64;93.35;100117.34;5026472;28;20046;-47
2023/01/06 07:14:25;;;;;;;5.40;1.00;;;;;;;5.63;93.54;100121.22;5028196;28;20045;-47
2023/01/06 07:16:52;;;;;;;8.50;1.58;;;;;;;5.65;93.50;100132.69;5028971;28;20132;-54
2023/01/06 07:19:19;;;;;;;9.95;2.53;;;;;;;5.67;93.81;100130.41;5011919;28;20053;-47
2023/01/06 07:21:45;;;;;;;7.38;2.15;;;;;;;5.67;93.73;100120.22;5029092;28;20053;-49
2023/01/06 07:24:12;;;;;;;8.43;1.23;;;;;;;5.70;93.81;100110.53;5029251;28;20041;-54
2023/01/06 07:26:39;;;;;;;7.72;1.13;;;;;;;5.73;93.86;100107.94;5011140;28;20049;-48
2023/01/06 07:29:05;;;;;;;11.55;1.90;;;;;;;5.74;93.97;100117.81;5029138;28;20046;-49
2023/01/06 07:31:32;;;;;;;5.57;1.17;;;;;;;5.76;94.03;100128.44;5028027;28;20491;-49
2023/01/06 07:33:59;;;;;;;9.73;1.52;;;;;;;5.77;93.94;100128.09;5029074;28;20333;-48
2023/01/06 07:36:25;;;;;;;11.15;1.00;;;;;;;5.78;93.97;100120.69;5028756;28;20088;-49
2023/01/06 07:38:52;;;;;;;7.05;1.33;;;;;;;5.80;93.96;100118.44;5029085;28;20479;-48
2023/01/06 07:41:19;;;;;;;5.00;0.95;;;;;;;5.81;93.81;100123.59;5027309;28;20144;-49
2023/01/06 07:43:45;;;;;;;8.38;0.98;;;;;;;5.82;94.03;100130.69;5028783;28;20136;-48
2023/01/06 07:46:12;;;;;;;6.28;0.90;;;;;;;5.83;93.92;100126.00;5028798;28;20051;-51
2023/01/06 07:48:39;;;;;;;12.38;2.40;;;;;;;5.85;94.05;100138.28;5028108;28;20041;-48
2023/01/06 07:51:06;;;;;;;5.60;2.08;;;;;;;5.86;94.13;100139.09;4999272;28;20033;-47
2023/01/06 07:53:33;;;;;;;5.70;1.08;;;;;;;5.87;93.94;100133.28;5028556;28;20053;-51
2023/01/06 07:55:59;;;;;;;7.82;1.08;;;;;;;5.87;93.97;100124.25;5027120;28;20497;-47
2023/01/06 07:58:26;;;;;;;3.13;1.20;;;;;;;5.86;94.02;100130.88;5028722;28;20045;-49
2023/01/06 08:00:53;;;;;;;4.60;0.90;;;;;;;5.86;94.20;100131.69;5028561;28;20046;-47
2023/01/06 08:03:20;;;;;;;9.70;1.27;;;;;;;5.86;94.20;100122.63;5028273;28;20044;-50
2023/01/06 08:05:46;;;;;;;9.07;1.30;;;;;;;5.84;94.19;100124.88;5024830;28;20134;-49
2023/01/06 08:08:13;;;;;;;8.00;1.30;;;;;;;5.84;94.26;100116.63;5023008;28;20140;-47
2023/01/06 08:10:41;;;;;;;6.55;0.85;;;;;;;5.84;94.12;100116.63;5028810;28;20055;-49
2023/01/06 08:13:09;;;;;;;10.57;1.33;;;;;;;5.83;94.31;100121.31;5026636;28;20084;-52
2023/01/06 08:15:36;;;;;;;7.30;1.20;;;;;;;5.83;94.32;100104.00;5028406;28;20041;-48
2023/01/06 08:18:03;;;;;;;10.50;1.20;;;;;;;5.84;94.43;100106.44;5028099;28;20053;-47
2023/01/06 08:20:30;;;;;;;6.50;0.70;;;;;;;5.83;94.46;100104.81;5028243;28;20049;-52
2023/01/06 08:22:57;;;;;;;8.98;1.98;;;;;;;5.81;94.42;100098.06;5009501;28;20140;-48
2023/01/06 08:25:24;;;;;;;4.22;1.45;;;;;;;5.80;94.43;100094.50;5010330;28;20080;-50
2023/01/06 08:27:50;;;;;;;9.50;0.95;;;;;;;5.79;94.43;100098.41;5027831;28;20057;-50
2023/01/06 08:30:20;;;;;;;2.30;0.80;;;;;;;5.78;94.63;100101.44;5028184;28;20530;-48
2023/01/06 08:32:48;;;;;;;8.25;1.52;;;;;;;5.78;94.55;100101.44;5027613;28;20621;-48
2023/01/06 08:35:15;;;;;;;6.97;0.95;;;;;;;5.77;94.58;100091.63;5038472;28;20041;-47
2023/01/06 08:37:42;;;;;;;4.72;0.90;;;;;;;5.75;94.78;100091.13;5024401;28;20144;-48
2023/01/06 08:40:09;;;;;;;4.43;1.20;;;;;;;5.76;94.83;100092.75;5028416;28;20428;-49
2023/01/06 08:42:36;;;;;;;4.22;1.00;;;;;;;5.76;94.96;100093.56;5028360;28;20049;-47
2023/01/06 08:45:03;;;;;;;8.50;1.35;;;;;;;5.77;94.91;100097.13;5029232;28;20041;-49
2023/01/06 08:47:30;;;;;;;4.53;1.23;;;;;;;5.78;95.01;100102.25;5029305;28;20065;-48
2023/01/06 08:49:57;;;;;;;4.93;1.30;;;;;;;5.81;95.13;100100.81;5029702;28;20056;-49
2023/01/06 08:52:24;;;;;;;5.90;1.75;;;;;;;5.81;95.07;100100.81;5029575;28;20037;-49
2023/01/06 08:54:51;;;;;;;3.83;1.15;;;;;;;5.80;95.37;100101.94;5028823;28;20815;-47
2023/01/06 08:57:18;;;;;;;4.57;1.52;;;;;;;5.80;95.32;100108.22;5020293;28;20061;-54
2023/01/06 08:59:45;;;;;;;2.72;0.85;;;;;;;5.81;95.37;100107.09;5026503;28;20052;-49
2023/01/06 09:02:13;;;;;;;3.60;1.00;;;;;;;5.83;95.41;100104.00;5026373;28;20606;-48
2023/01/06 09:04:40;;;;;;;7.90;1.20;;;;;;;5.87;95.63;100116.00;5026805;28;20451;-53
2023/01/06 09:07:07;;;;;;;3.30;1.00;;;;;;;5.88;95.44;100112.09;4997918;28;20045;-49
2023/01/06 09:09:34;;;;;;;4.22;1.13;;;;;;;5.90;95.51;100109.84;5024102;28;20057;-50
2023/01/06 09:12:01;;;;;;;6.10;1.67;;;;;;;5.93;95.50;100114.69;5025940;28;20045;-52
2023/01/06 09:14:28;;;;;;;5.40;1.40;;;;;;;5.96;95.54;100106.56;5026959;28;20037;-50
2023/01/06 09:16:55;;;;;;;4.93;1.38;;;;;;;5.99;95.82;100102.38;5026283;28;20059;-51
2023/01/06 09:19:21;;;;;;;5.68;1.65;;;;;;;6.02;95.59;100102.53;5028046;28;20407;-49
2023/01/06 09:21:48;;;;;;;8.75;1.52;;;;;;;6.06;95.59;100099.94;5025619;28;20073;-53
2023/01/06 09:24:15;;;;;;;8.48;2.10;;;;;;;6.10;95.73;100087.94;5027717;28;20402;-48
2023/01/06 09:26:42;;;;;;;4.82;0.80;;;;;;;6.13;95.76;100081.78;5024636;28;20053;-49
2023/01/06 09:29:09;;;;;;;2.85;1.25;;;;;;;6.18;95.79;100089.03;5018155;28;20045;-54
2023/01/06 09:31:35;;;;;;;2.63;0.93;;;;;;;6.20;95.93;100086.75;5026377;28;20037;-52
2023/01/06 09:34:02;;;;;;;7.85;1.13;;;;;;;6.23;95.82;100082.50;5020972;28;20084;-55
2023/01/06 09:36:31;;;;;;;5.05;1.08;;;;;;;6.26;95.82;100073.63;5025708;28;20128;-51
2023/01/06 09:38:58;;;;;;;4.90;1.10;;;;;;;6.28;95.88;100083.13;5023606;28;20048;-50
2023/01/06 09:41:35;;;;;;;11.02;1.85;;;;;;;6.30;95.77;100086.34;5027942;28;20049;-55
2023/01/06 09:44:10;;;;;;;7.35;1.35;;;;;;;6.34;95.91;100075.50;5025561;28;20081;-54
2023/01/06 09:46:40;;;;;;;3.80;1.73;;;;;;;6.38;95.92;100076.47;5019372;28;20034;-50
2023/01/06 09:49:29;;;;;;;4.53;1.10;;;;;;;6.42;95.99;100067.22;5024123;28;20060;-51
2023/01/06 09:52:03;;;;;;;4.72;1.50;;;;;;;6.43;95.85;100057.84;5026257;28;20515;-51
2023/01/06 09:54:34;;;;;;;4.50;1.35;;;;;;;6.44;96.02;100042.91;5027194;28;20053;-49
2023/01/06 09:57:08;;;;;;;6.03;1.00;;;;;;;6.47;95.97;100042.25;5025823;28;20049;-53
2023/01/06 09:59:43;;;;;;;5.47;1.08;;;;;;;6.49;96.03;100048.22;5026118;28;20053;-50
2023/01/06 10:02:18;;;;;;;3.53;0.73;;;;;;;6.52;95.98;100038.50;5023416;28;20053;-48
2023/01/06 10:04:45;;;;;;;16.95;5.30;;;;;;;6.55;95.88;100038.63;5025653;28;20041;-52
2023/01/06 10:07:24;;;;;;;9.68;1.80;;;;;;;6.57;96.06;100046.53;5024999;28;20045;-47
2023/01/06 10:10:49;;;;;;;5.78;1.02;;;;;;;6.60;96.05;100051.38;5020201;28;20832;-48
2023/01/06 10:13:38;;;;;;;5.22;0.80;;;;;;;6.63;96.05;100057.03;4986626;28;20042;-53
2023/01/06 10:16:28;;;;;;;10.07;1.50;;;;;;;6.64;96.10;100055.91;5026907;28;20049;-48
2023/01/06 10:19:06;;;;;;;3.22;1.35;;;;;;;6.66;96.06;100039.03;5017123;28;20049;-50
2023/01/06 10:21:47;;;;;;;3.08;1.20;;;;;;;6.67;96.14;100030.44;5025922;28;20041;-51
2023/01/06 10:24:20;;;;;;;6.70;1.90;;;;;;;6.69;96.15;100027.38;5024750;28;20506;-48
2023/01/06 10:26:57;;;;;;;12.50;1.52;;;;;;;6.70;96.15;100028.97;5025419;28;20053;-50
2023/01/06 10:29:31;;;;;;;6.32;1.30;;;;;;;6.73;96.26;100033.78;5024094;28;20041;-49
2023/01/06 10:32:00;;;;;;;10.63;2.05;;;;;;;6.77;96.25;100029.25;5029589;28;20100;-49
2023/01/06 10:34:27;;;;;;;8.82;1.17;;;;;;;6.79;96.42;100026.94;5030429;28;20048;-48
2023/01/06 10:37:09;;;;;;;8.75;1.08;;;;;;;6.83;96.39;100027.09;5028062;28;20065;-48
2023/01/06 10:39:39;;;;;;;6.50;1.80;;;;;;;6.86;96.43;100026.41;5029846;28;20053;-55
2023/01/06 10:45:00;;;;;;;5.18;1.00;;;;;;;6.93;96.38;100015.66;5019965;28;20281;-54
2023/01/06 10:47:30;;;;;;;11.30;2.20;;;;;;;7.00;96.35;100021.41;5029987;28;20048;-50
2023/01/06 10:49:58;;;;;;;8.18;1.08;;;;;;;7.06;96.26;100015.38;5029810;28;20049;-50
2023/01/06 10:52:26;;;;;;;7.70;0.80;;;;;;;7.13;96.25;100020.31;5027688;28;20045;-49
2023/01/06 10:54:59;;;;;;;9.45;2.47;;;;;;;7.19;96.21;100018.94;5022336;28;20069;-48
2023/01/06 10:57:31;;;;;;;4.82;0.98;;;;;;;7.25;95.99;100012.88;5022972;28;20045;-53
2023/01/06 11:00:06;;;;;;;6.20;1.30;;;;;;;7.31;95.79;100010.72;5029770;28;20045;-48
2023/01/06 11:02:33;;;;;;;4.68;0.98;;;;;;;7.34;95.81;100012.78;5025023;28;20418;-53
2023/01/06 11:05:01;;;;;;;5.25;1.13;;;;;;;7.39;95.80;100029.06;5026926;28;20132;-55
2023/01/06 11:07:29;;;;;;;6.60;1.10;;;;;;;7.41;95.66;100013.03;5026760;28;20053;-49
2023/01/06 11:09:56;;;;;;;6.90;1.52;;;;;;;7.44;95.75;100012.34;5027954;28;20395;-50
2023/01/06 11:12:27;;;;;;;5.38;1.05;;;;;;;7.47;95.55;100008.91;5024024;28;20446;-51
2023/01/06 11:15:07;;;;;;;7.75;0.95;;;;;;;7.50;95.58;100008.22;5009397;28;20511;-53
2023/01/06 11:17:35;;;;;;;11.23;1.30;;;;;;;7.53;95.41;100013.06;5031238;28;20372;-51
2023/01/06 11:20:17;;;;;;;4.95;0.95;;;;;;;7.58;95.39;100009.25;5026536;28;20053;-48
2023/01/06 11:22:44;;;;;;;2.08;0.65;;;;;;;7.61;95.43;100009.38;5029519;28;20395;-56
2023/01/06 11:25:19;;;;;;;4.95;1.23;;;;;;;7.65;95.22;100012.25;5021651;28;20061;-54
2023/01/06 11:27:47;;;;;;;7.15;1.20;;;;;;;7.69;95.15;100008.47;5026914;28;20049;-50
2023/01/06 11:30:27;;;;;;;9.05;1.23;;;;;;;7.73;95.06;100006.63;5018366;28;20403;-51
2023/01/06 11:32:54;;;;;;;5.35;1.27;;;;;;;7.79;95.08;100009.97;5025711;28;20128;-49
2023/01/06 11:35:29;;;;;;;6.47;1.65;;;;;;;7.84;95.02;100002.25;5028804;28;20172;-54
2023/01/06 11:37:58;;;;;;;6.75;1.00;;;;;;;7.89;94.95;99999.28;5027405;28;20041;-50
2023/01/06 11:40:33;;;;;;;9.10;1.20;;;;;;;7.93;94.75;99989.19;5025845;28;20487;-49
2023/01/06 11:43:05;;;;;;;2.78;1.15;;;;;;;7.95;94.46;99986.88;5017999;28;20052;-49
2023/01/06 11:45:36;;;;;;;5.22;1.98;;;;;;;7.98;94.35;99974.34;5027027;28;20063;-52
2023/01/06 11:48:11;;;;;;;9.70;2.10;;;;;;;7.97;94.27;99964.47;5030483;28;20044;-55
2023/01/06 11:50:39;;;;;;;5.10;1.40;;;;;;;7.96;94.00;99965.63;5027076;28;20038;-56
2023/01/06 11:53:17;;;;;;;6.20;1.10;;;;;;;7.97;94.08;99967.22;5028261;28;20049;-50